»·PEaware :: TWY250 KAZC-KTEX

TWY250 :: KAZC-KTEX

FLIGHT INFORMATION

Flight Status: Arrived
Operator: Unknown
More flights by this operator :: More flights under this callsign
Pilot: Andrew J. (13363)
Aircraft: BOMBARDIER BD-100 CHALLENGER 300
(CL30)
More flights by this aircraft type
Origin: KAZC Colorado City Mun
United States
Destination: KTEX Telluride Regl
United States
More flights between these airports :: More routes between these airports
Route: GARDD Q74 DEANN DVC
File this flight plan on PilotEdge
Remarks:
Altitude:
(Current/Filed)
45,000ft
Speed:
(Current/Filed)
310kts
Departed: 09-Aug-18 08:38 PM
Arrived: 09-Aug-18 09:17 PM
Distance/Time
Traveled:
247nm/0:39
Distance/Time
To Go:
Arrived

Flight Plot

Page will automatically refresh every two minutes.

Flight plan parsing failed; only flown route is shown


Map Options




Map Legend


Flown Route
Filed Route
Departure Airport
Arrival Airport
Navaid (VOR, NDB)
Fix

Horizontal Profiles

Position Reports

Time Latitude Longitude Heading Altitude Ground
Speed
09-Aug-18 20:34 36.955548 -113.006012 302 4858ft 0kts
09-Aug-18 20:35 36.955548 -113.006012 302 4858ft 0kts
09-Aug-18 20:36 36.955548 -113.006012 302 4858ft 0kts
09-Aug-18 20:37 36.955548 -113.006012 302 4858ft 0kts
09-Aug-18 20:38 36.955725 -113.006354 303 4858ft 26kts
09-Aug-18 20:39 36.981873 -113.033693 29 7385ft 182kts
09-Aug-18 20:40 36.989533 -112.968982 83 11552ft 233kts
09-Aug-18 20:41 37.001125 -112.876072 76 15135ft 312kts
09-Aug-18 20:42 37.024580 -112.759468 73 18594ft 369kts
09-Aug-18 20:43 37.053342 -112.633312 76 22424ft 388kts
09-Aug-18 20:44 37.076474 -112.499521 76 25920ft 395kts
09-Aug-18 20:45 37.099800 -112.363942 76 28758ft 407kts
09-Aug-18 20:46 37.123467 -112.225410 77 31126ft 419kts
09-Aug-18 20:47 37.148001 -112.080605 77 33164ft 432kts
09-Aug-18 20:48 37.168472 -111.958938 77 35738ft 415kts
09-Aug-18 20:49 37.197197 -111.786923 77 37345ft 438kts
09-Aug-18 20:50 37.220682 -111.664090 73 39313ft 430kts
09-Aug-18 20:51 37.258128 -111.499462 73 42175ft 413kts
09-Aug-18 20:52 37.283914 -111.385504 73 43946ft 405kts
09-Aug-18 20:53 37.319035 -111.229398 73 45089ft 422kts
09-Aug-18 20:54 37.346170 -111.108070 73 45087ft 443kts
09-Aug-18 20:55 37.379983 -110.956034 74 45086ft 464kts
09-Aug-18 20:56 37.414793 -110.798329 74 45079ft 471kts
09-Aug-18 20:57 37.449416 -110.640382 74 45082ft 468kts
09-Aug-18 20:58 37.483450 -110.484062 74 45173ft 459kts
09-Aug-18 20:59 37.516476 -110.331327 75 45221ft 452kts
09-Aug-18 21:00 37.549663 -110.176782 75 44086ft 468kts
09-Aug-18 21:01 37.583716 -110.017071 75 42325ft 478kts
09-Aug-18 21:02 37.617906 -109.855573 75 40682ft 478kts
09-Aug-18 21:03 37.651360 -109.696351 75 39165ft 462kts
09-Aug-18 21:04 37.683502 -109.542306 75 37649ft 448kts
09-Aug-18 21:05 37.714544 -109.392453 75 36132ft 435kts
09-Aug-18 21:06 37.744063 -109.249006 75 34649ft 423kts
09-Aug-18 21:07 37.773115 -109.106830 75 33138ft 413kts
09-Aug-18 21:08 37.801140 -108.968839 75 31340ft 399kts
09-Aug-18 21:09 37.822791 -108.833620 79 27839ft 389kts
09-Aug-18 21:10 37.842797 -108.696739 79 24348ft 402kts
09-Aug-18 21:11 37.862656 -108.558868 80 20852ft 396kts
09-Aug-18 21:12 37.882380 -108.420501 80 17820ft 395kts
09-Aug-18 21:13 37.905849 -108.297004 69 16750ft 359kts
09-Aug-18 21:14 37.941266 -108.185689 69 15012ft 305kts
09-Aug-18 21:15 37.965443 -108.088700 78 13424ft 285kts
09-Aug-18 21:16 37.972958 -108.002603 99 11117ft 230kts
09-Aug-18 21:17 37.959942 -107.937889 105 9390ft 153kts
09-Aug-18 21:18 37.952406 -107.901388 26 9062ft 8kts
09-Aug-18 21:19 37.953725 -107.900727 274 9062ft 0kts
09-Aug-18 21:20 37.953725 -107.900727 274 9062ft 0kts
09-Aug-18 21:21 37.953725 -107.900727 274 9062ft 0kts
09-Aug-18 21:22 37.953725 -107.900727 274 9062ft 0kts
09-Aug-18 21:23 37.953725 -107.900727 274 9062ft 0kts
09-Aug-18 21:24 37.953725 -107.900727 274 9062ft 0kts
09-Aug-18 21:25 37.953725 -107.900727 274 9062ft 0kts
09-Aug-18 21:26 37.953725 -107.900727 274 9062ft 0kts
09-Aug-18 21:27 37.953725 -107.900727 274 9062ft 0kts
09-Aug-18 21:28 37.953725 -107.900727 274 9062ft 0kts
09-Aug-18 21:29 37.953261 -107.900883 123 9062ft 14kts
09-Aug-18 21:30 37.951376 -107.897233 288 9062ft 0kts
09-Aug-18 21:31 37.960957 -107.936933 287 11394ft 153kts
09-Aug-18 21:32 37.992235 -107.992555 340 13221ft 232kts

Navigation Log

Ident Type
Flight plan parsing failed, navigation log unavailable